createdAt,value
2022-12-22T00:00:11.436Z,42.90
2022-12-22T00:04:20.246Z,43.80
2022-12-22T00:08:05.998Z,41.90
2022-12-22T00:11:51.331Z,43.00
2022-12-22T00:15:37.303Z,46.90
2022-12-22T00:19:31.047Z,49.30
2022-12-22T00:23:16.521Z,48.60
2022-12-22T00:27:02.222Z,45.20
2022-12-22T00:30:48.356Z,45.50
2022-12-22T00:34:39.080Z,47.30
2022-12-22T00:38:33.018Z,45.10
2022-12-22T00:42:19.656Z,47.10
2022-12-22T00:46:03.972Z,47.50
2022-12-22T00:49:49.563Z,48.50
2022-12-22T00:53:35.569Z,45.60
2022-12-22T00:57:20.850Z,47.20
2022-12-22T01:01:05.681Z,51.90
2022-12-22T01:04:50.350Z,50.10
2022-12-22T01:08:34.762Z,49.40
2022-12-22T01:12:19.269Z,48.70
2022-12-22T01:16:03.500Z,47.50
2022-12-22T01:19:47.600Z,44.80
2022-12-22T01:23:32.451Z,42.60
2022-12-22T01:27:17.147Z,39.00
2022-12-22T01:31:02.568Z,38.50
2022-12-22T01:34:46.836Z,39.20
2022-12-22T01:38:31.440Z,37.00
2022-12-22T01:42:15.837Z,37.10
2022-12-22T01:46:00.559Z,38.40
2022-12-22T01:49:49.811Z,38.80
2022-12-22T01:53:39.891Z,38.60
2022-12-22T01:57:25.016Z,39.80
2022-12-22T02:01:09.328Z,38.70
2022-12-22T02:05:03.219Z,38.40
2022-12-22T02:08:52.439Z,38.20
2022-12-22T02:12:44.443Z,36.10
2022-12-22T02:16:34.738Z,34.40
2022-12-22T02:20:48.952Z,34.60
2022-12-22T02:24:48.445Z,33.60
2022-12-22T02:28:34.299Z,33.20
2022-12-22T02:32:18.743Z,34.20
2022-12-22T02:36:18.648Z,36.40
2022-12-22T02:40:11.681Z,35.10
2022-12-22T02:44:12.277Z,33.30
2022-12-22T02:48:02.945Z,34.60
2022-12-22T02:51:50.563Z,34.40
2022-12-22T02:55:36.452Z,34.70
2022-12-22T02:59:21.107Z,31.90
2022-12-22T03:03:06.355Z,33.60
2022-12-22T03:06:50.999Z,33.20
2022-12-22T03:10:35.765Z,33.00
2022-12-22T03:14:20.131Z,44.20
2022-12-22T03:18:04.847Z,32.70
2022-12-22T03:21:49.325Z,31.20
2022-12-22T03:25:34.132Z,29.40
2022-12-22T03:29:00.739Z,30.80
2022-12-22T03:32:27.214Z,32.10
2022-12-22T03:35:54.299Z,30.60
2022-12-22T03:39:20.584Z,30.70
2022-12-22T03:43:05.283Z,30.50
2022-12-22T03:46:32.384Z,30.80
2022-12-22T03:49:59.523Z,32.00
2022-12-22T03:53:26.455Z,32.30
2022-12-22T03:56:54.180Z,31.10
2022-12-22T04:00:21.933Z,29.10
2022-12-22T04:03:49.601Z,30.20
2022-12-22T04:07:16.789Z,28.50
2022-12-22T04:11:01.268Z,30.00
2022-12-22T04:14:33.386Z,28.00
2022-12-22T04:18:01.917Z,29.60
2022-12-22T04:21:29.038Z,29.50
2022-12-22T04:24:56.075Z,32.60
2022-12-22T04:28:23.068Z,31.20
2022-12-22T04:31:50.126Z,28.90
2022-12-22T04:35:16.830Z,30.00
2022-12-22T04:38:43.325Z,27.70
2022-12-22T04:42:10.127Z,25.30
2022-12-22T04:45:37.124Z,24.80
2022-12-22T04:49:03.926Z,27.60
2022-12-22T04:52:31.168Z,26.70
2022-12-22T04:56:00.948Z,26.70
2022-12-22T04:59:27.963Z,25.00
2022-12-22T05:02:55.454Z,24.60
2022-12-22T05:06:22.769Z,25.10
2022-12-22T05:09:49.824Z,25.60
2022-12-22T05:13:17.015Z,26.20
2022-12-22T05:16:44.076Z,28.30
2022-12-22T05:20:12.665Z,26.50
2022-12-22T05:23:39.542Z,28.60
2022-12-22T05:27:06.111Z,30.40
2022-12-22T05:30:33.242Z,28.60
2022-12-22T05:33:59.645Z,27.80
2022-12-22T05:37:26.360Z,27.00
2022-12-22T05:40:56.808Z,27.30
2022-12-22T05:44:26.628Z,26.80
2022-12-22T05:47:54.285Z,26.40
2022-12-22T05:51:22.057Z,27.20
2022-12-22T05:54:49.071Z,27.80
2022-12-22T05:58:16.845Z,27.70
2022-12-22T06:01:43.481Z,28.00
2022-12-22T06:05:12.218Z,28.90
2022-12-22T06:08:39.546Z,29.00
2022-12-22T06:12:06.965Z,31.10
2022-12-22T06:15:33.565Z,31.00
2022-12-22T06:19:00.706Z,30.00
2022-12-22T06:22:27.367Z,28.30
2022-12-22T06:26:02.444Z,29.10
2022-12-22T06:29:28.997Z,29.30
2022-12-22T06:32:55.701Z,31.70
2022-12-22T06:36:22.513Z,28.30
2022-12-22T06:39:49.235Z,28.80
2022-12-22T06:43:17.176Z,28.30
2022-12-22T06:46:44.170Z,26.90
2022-12-22T06:50:12.492Z,28.60
2022-12-22T06:53:39.332Z,28.50
2022-12-22T06:57:06.375Z,27.40
2022-12-22T07:00:33.842Z,28.00
2022-12-22T07:04:00.772Z,28.30
2022-12-22T07:07:27.719Z,28.60
2022-12-22T07:11:00.908Z,26.90
2022-12-22T07:14:27.435Z,29.00
2022-12-22T07:17:56.264Z,32.00
2022-12-22T07:21:22.969Z,31.60
2022-12-22T07:24:50.735Z,31.60
2022-12-22T07:28:20.997Z,31.40
2022-12-22T07:31:48.153Z,35.40
2022-12-22T07:35:15.423Z,35.80
2022-12-22T07:38:44.180Z,31.90
2022-12-22T07:42:31.575Z,31.10
2022-12-22T07:45:58.213Z,31.80
2022-12-22T07:49:42.518Z,30.80
2022-12-22T07:53:09.425Z,30.70
2022-12-22T07:56:38.675Z,28.50
2022-12-22T08:00:06.241Z,32.00
2022-12-22T08:03:38.705Z,27.30
2022-12-22T08:07:05.685Z,28.20
2022-12-22T08:10:33.245Z,27.80
2022-12-22T08:14:01.900Z,28.80
2022-12-22T08:17:29.895Z,28.90
2022-12-22T08:20:56.648Z,28.80
2022-12-22T08:24:25.428Z,37.40
2022-12-22T08:27:55.827Z,31.30
2022-12-22T08:31:23.849Z,28.80
2022-12-22T08:34:52.153Z,28.20
2022-12-22T08:38:19.466Z,29.50
2022-12-22T08:41:52.172Z,28.20
2022-12-22T08:45:19.027Z,29.80
2022-12-22T08:48:46.271Z,28.70
2022-12-22T08:52:18.397Z,31.70
2022-12-22T08:55:54.569Z,29.50
2022-12-22T08:59:24.616Z,28.40
2022-12-22T09:02:52.453Z,26.70
2022-12-22T09:06:21.508Z,26.10
2022-12-22T09:09:54.917Z,25.50
2022-12-22T09:13:21.424Z,26.70
2022-12-22T09:16:48.468Z,30.90
2022-12-22T09:20:16.750Z,26.00
2022-12-22T09:23:43.646Z,22.30
2022-12-22T09:27:10.669Z,23.70
2022-12-22T09:30:37.446Z,21.90
2022-12-22T09:34:04.020Z,22.20
2022-12-22T09:37:30.644Z,22.10
2022-12-22T09:40:57.453Z,26.20
2022-12-22T09:44:28.023Z,25.20
2022-12-22T09:47:56.622Z,22.70
2022-12-22T09:51:27.437Z,25.00
2022-12-22T09:54:54.788Z,24.30
2022-12-22T09:58:26.961Z,25.10
2022-12-22T10:02:05.326Z,31.70
2022-12-22T10:05:41.363Z,23.50
2022-12-22T10:09:47.741Z,24.50
2022-12-22T10:13:07.772Z,20.10
2022-12-22T10:16:34.532Z,23.80
2022-12-22T10:20:25.673Z,21.70
2022-12-22T10:23:52.616Z,20.50
2022-12-22T10:27:25.807Z,23.90
2022-12-22T10:31:13.985Z,32.00
2022-12-22T10:34:45.793Z,28.90
2022-12-22T10:38:23.116Z,28.00
2022-12-22T10:41:56.956Z,35.10
2022-12-22T10:45:28.477Z,34.70
2022-12-22T10:49:10.156Z,24.50
2022-12-22T10:52:37.937Z,19.30
2022-12-22T10:56:18.609Z,33.40
2022-12-22T10:59:52.456Z,26.10
2022-12-22T11:03:32.807Z,17.40
2022-12-22T11:07:02.199Z,19.70
2022-12-22T11:10:40.008Z,19.70
2022-12-22T11:14:15.908Z,21.70
2022-12-22T11:17:54.658Z,25.40
2022-12-22T11:21:29.652Z,23.40
2022-12-22T11:25:17.019Z,22.70
2022-12-22T11:28:56.305Z,25.40
2022-12-22T11:32:43.435Z,28.20
2022-12-22T11:36:17.158Z,29.20
2022-12-22T11:39:53.014Z,23.40
2022-12-22T11:43:35.339Z,20.90
2022-12-22T11:47:12.930Z,21.10
2022-12-22T11:50:58.199Z,20.10
2022-12-22T11:54:59.304Z,19.90
2022-12-22T11:58:43.785Z,22.30
2022-12-22T12:02:44.192Z,25.20
2022-12-22T12:07:00.171Z,26.60
2022-12-22T12:10:30.542Z,23.80
2022-12-22T12:14:12.636Z,24.80
2022-12-22T12:17:52.487Z,30.30
2022-12-22T12:21:29.834Z,31.50
2022-12-22T12:25:13.496Z,32.10
2022-12-22T12:28:53.882Z,27.90
2022-12-22T12:32:27.406Z,28.00
2022-12-22T12:39:40.895Z,27.20
2022-12-22T12:43:15.951Z,27.00
2022-12-22T12:47:10.171Z,34.60
2022-12-22T12:50:38.873Z,26.20
2022-12-22T12:54:37.502Z,28.50
2022-12-22T12:58:07.921Z,27.80
2022-12-22T13:02:02.169Z,29.60
2022-12-22T13:05:36.959Z,26.60
2022-12-22T13:09:49.336Z,26.50
2022-12-22T13:13:11.452Z,24.90
2022-12-22T13:16:40.754Z,25.10
2022-12-22T13:20:15.795Z,38.70
2022-12-22T13:24:22.340Z,25.80
2022-12-22T13:27:34.693Z,25.90
2022-12-22T13:31:05.425Z,23.80
2022-12-22T13:35:20.633Z,25.00
2022-12-22T13:38:36.290Z,40.80
2022-12-22T13:42:02.975Z,47.70
2022-12-22T13:45:36.196Z,72.00
2022-12-22T13:49:05.146Z,74.70
2022-12-22T13:52:32.295Z,40.80
2022-12-22T13:56:01.202Z,41.10
2022-12-22T13:59:35.068Z,35.80
2022-12-22T14:06:33.846Z,35.70
2022-12-22T14:10:01.211Z,37.00
2022-12-22T14:13:34.858Z,37.80
2022-12-22T14:17:07.028Z,44.70
2022-12-22T14:20:40.485Z,48.60
2022-12-22T14:24:08.367Z,40.70
2022-12-22T14:27:43.914Z,44.00
2022-12-22T14:31:13.938Z,40.80
2022-12-22T14:34:41.173Z,39.50
2022-12-22T14:38:27.628Z,34.20
2022-12-22T14:41:57.236Z,37.20
2022-12-22T14:45:26.856Z,39.00
2022-12-22T14:48:53.588Z,40.90
2022-12-22T14:52:33.800Z,43.50
2022-12-22T14:56:00.848Z,46.20
2022-12-22T14:59:31.508Z,50.10
2022-12-22T15:03:02.201Z,46.90
2022-12-22T15:06:40.826Z,45.80
2022-12-22T15:10:16.374Z,44.70
2022-12-22T15:13:46.588Z,47.10
2022-12-22T15:17:26.241Z,48.70
2022-12-22T15:20:58.100Z,42.40
2022-12-22T15:24:25.596Z,41.60
2022-12-22T15:27:53.777Z,44.00
2022-12-22T15:31:25.375Z,39.20
2022-12-22T15:34:55.153Z,40.60
2022-12-22T15:38:23.690Z,41.30
2022-12-22T15:41:51.920Z,38.00
2022-12-22T15:45:24.074Z,41.40
2022-12-22T15:48:54.127Z,40.70
2022-12-22T15:52:21.052Z,39.70
2022-12-22T15:55:51.817Z,37.00
2022-12-22T15:59:24.159Z,35.60
2022-12-22T16:02:51.181Z,31.60
2022-12-22T16:06:20.833Z,28.80
2022-12-22T16:09:50.379Z,28.50
2022-12-22T16:13:26.856Z,25.70
2022-12-22T16:16:53.866Z,24.90
2022-12-22T16:20:21.792Z,23.30
2022-12-22T16:23:52.676Z,22.30
2022-12-22T16:27:19.887Z,23.00
2022-12-22T16:30:48.793Z,22.20
2022-12-22T16:34:16.166Z,22.40
2022-12-22T16:37:45.267Z,22.90
2022-12-22T16:41:21.986Z,21.20
2022-12-22T16:44:51.798Z,23.00
2022-12-22T16:48:21.671Z,23.00
2022-12-22T16:51:52.561Z,21.80
2022-12-22T16:55:21.586Z,24.00
2022-12-22T16:58:49.443Z,22.70
2022-12-22T17:02:29.781Z,22.80
2022-12-22T17:06:01.979Z,22.40
2022-12-22T17:09:32.755Z,22.50
2022-12-22T17:13:02.687Z,22.20
2022-12-22T17:16:30.093Z,22.70
2022-12-22T17:19:59.166Z,22.50
2022-12-22T17:23:36.869Z,23.20
2022-12-22T17:27:08.795Z,23.60
2022-12-22T17:30:42.545Z,23.70
2022-12-22T17:34:17.666Z,24.10
2022-12-22T17:37:45.648Z,25.00
2022-12-22T17:41:15.672Z,24.30
2022-12-22T17:44:44.631Z,23.80
2022-12-22T17:48:14.268Z,24.40
2022-12-22T17:51:45.671Z,23.60
2022-12-22T17:56:01.335Z,23.80
2022-12-22T17:59:14.090Z,22.70
2022-12-22T18:02:41.039Z,22.70
2022-12-22T18:06:12.894Z,24.20
2022-12-22T18:09:44.384Z,24.20
2022-12-22T18:13:18.991Z,27.60
2022-12-22T18:16:46.792Z,27.40
2022-12-22T18:20:18.168Z,28.20
2022-12-22T18:23:49.842Z,29.80
2022-12-22T18:27:18.327Z,29.00
2022-12-22T18:30:46.323Z,26.80
2022-12-22T18:34:14.607Z,27.50
2022-12-22T18:37:42.305Z,24.70
2022-12-22T18:41:18.752Z,24.10
2022-12-22T18:44:46.255Z,23.50
2022-12-22T18:48:15.298Z,22.10
2022-12-22T18:51:44.424Z,22.80
2022-12-22T18:55:19.691Z,22.10
2022-12-22T18:58:47.559Z,23.20
2022-12-22T19:02:25.819Z,24.10
2022-12-22T19:05:54.551Z,22.70
2022-12-22T19:09:23.689Z,27.70
2022-12-22T19:12:58.703Z,26.60
2022-12-22T19:16:29.157Z,25.50
2022-12-22T19:19:57.783Z,24.80
2022-12-22T19:23:26.723Z,25.60
2022-12-22T19:26:53.920Z,25.40
2022-12-22T19:30:23.815Z,26.60
2022-12-22T19:33:51.862Z,24.50
2022-12-22T19:37:18.740Z,25.40
2022-12-22T19:40:45.913Z,29.20
2022-12-22T19:44:25.962Z,28.30
2022-12-22T19:47:55.062Z,27.20
2022-12-22T19:51:23.746Z,28.30
2022-12-22T19:54:58.092Z,26.10
2022-12-22T19:58:30.430Z,24.20
2022-12-22T20:02:01.350Z,23.70
2022-12-22T20:05:33.057Z,22.90
2022-12-22T20:09:03.602Z,21.30
2022-12-22T20:12:36.721Z,22.10
2022-12-22T20:16:05.938Z,24.00
2022-12-22T20:19:43.712Z,25.40
2022-12-22T20:23:22.130Z,26.90
2022-12-22T20:26:54.638Z,25.70
2022-12-22T20:30:24.180Z,24.40
2022-12-22T20:33:55.193Z,24.70
2022-12-22T20:37:23.254Z,20.50
2022-12-22T20:40:52.768Z,19.70
2022-12-22T20:44:33.182Z,21.10
2022-12-22T20:48:02.297Z,19.50
2022-12-22T20:51:34.759Z,19.60
2022-12-22T20:55:02.833Z,21.70
2022-12-22T20:58:35.177Z,21.30
2022-12-22T21:02:02.054Z,19.30
2022-12-22T21:05:29.467Z,20.30
2022-12-22T21:08:58.946Z,20.60
2022-12-22T21:12:27.219Z,21.00
2022-12-22T21:15:55.190Z,19.10
2022-12-22T21:19:23.585Z,19.50
2022-12-22T21:22:53.075Z,19.00
2022-12-22T21:26:26.696Z,20.00
2022-12-22T21:33:20.790Z,19.50
2022-12-22T21:36:55.782Z,20.10
2022-12-22T21:40:26.556Z,19.20
2022-12-22T21:43:55.293Z,18.00
2022-12-22T21:47:22.744Z,20.50
2022-12-22T21:50:54.246Z,18.60
2022-12-22T21:54:26.576Z,18.30
2022-12-22T21:57:56.175Z,18.70
2022-12-22T22:01:23.793Z,19.60
2022-12-22T22:04:54.998Z,20.60
2022-12-22T22:08:23.599Z,18.00
2022-12-22T22:12:09.486Z,21.70
2022-12-22T22:15:36.468Z,19.70
2022-12-22T22:19:04.214Z,17.90
2022-12-22T22:22:32.412Z,17.40
2022-12-22T22:26:02.105Z,17.60
2022-12-22T22:29:29.864Z,15.70
2022-12-22T22:32:58.197Z,16.80
2022-12-22T22:36:25.013Z,16.50
2022-12-22T22:40:12.898Z,15.90
2022-12-22T22:43:44.002Z,16.50
2022-12-22T22:47:11.580Z,17.90
2022-12-22T22:50:41.461Z,16.20
2022-12-22T22:54:18.388Z,15.70
2022-12-22T22:57:45.456Z,14.70
2022-12-22T23:01:13.559Z,15.10
2022-12-22T23:04:39.868Z,14.90
2022-12-22T23:08:07.743Z,15.30
2022-12-22T23:11:34.747Z,15.80
2022-12-22T23:15:02.393Z,16.40
2022-12-22T23:18:31.829Z,16.80
2022-12-22T23:21:59.326Z,15.70
2022-12-22T23:25:26.081Z,14.70
2022-12-22T23:28:56.425Z,14.90
2022-12-22T23:32:25.817Z,14.30
2022-12-22T23:35:54.254Z,13.20
2022-12-22T23:39:21.634Z,14.00
2022-12-22T23:42:54.817Z,14.80
2022-12-22T23:46:24.567Z,13.40
2022-12-22T23:49:51.990Z,14.10
2022-12-22T23:53:19.110Z,13.10
2022-12-22T23:56:46.467Z,12.80
